createdAt,value
2023-03-01T00:01:52.339Z,-3.80
2023-03-01T00:04:21.192Z,-3.80
2023-03-01T00:06:49.774Z,-3.90
2023-03-01T00:09:18.984Z,-3.90
2023-03-01T00:11:48.078Z,-3.90
2023-03-01T00:14:18.733Z,-3.90
2023-03-01T00:16:48.637Z,-3.90
2023-03-01T00:19:19.083Z,-3.90
2023-03-01T00:21:48.353Z,-3.90
2023-03-01T00:24:17.972Z,-3.90
2023-03-01T00:26:47.762Z,-3.90
2023-03-01T00:29:18.004Z,-3.90
2023-03-01T00:31:46.636Z,-3.80
2023-03-01T00:34:15.343Z,-3.80
2023-03-01T00:36:43.937Z,-3.80
2023-03-01T00:39:16.007Z,-3.80
2023-03-01T00:41:45.566Z,-3.80
2023-03-01T00:44:14.425Z,-3.90
2023-03-01T00:46:44.541Z,-3.90
2023-03-01T00:49:13.384Z,-3.90
2023-03-01T00:51:42.877Z,-3.90
2023-03-01T00:54:11.778Z,-3.90
2023-03-01T00:56:40.402Z,-3.80
2023-03-01T00:59:08.933Z,-3.90
2023-03-01T01:01:37.638Z,-3.90
2023-03-01T01:04:10.075Z,-3.90
2023-03-01T01:06:40.568Z,-3.90
2023-03-01T01:09:10.707Z,-3.90
2023-03-01T01:11:39.319Z,-3.90
2023-03-01T01:14:07.899Z,-3.90
2023-03-01T01:16:36.722Z,-3.90
2023-03-01T01:19:07.265Z,-3.90
2023-03-01T01:21:35.960Z,-4.00
2023-03-01T01:24:06.761Z,-4.00
2023-03-01T01:26:36.387Z,-4.00
2023-03-01T01:29:06.594Z,-4.00
2023-03-01T01:31:36.148Z,-4.00
2023-03-01T01:34:08.080Z,-4.00
2023-03-01T01:36:37.193Z,-4.00
2023-03-01T01:39:05.816Z,-4.00
2023-03-01T01:41:34.540Z,-4.00
2023-03-01T01:44:18.479Z,-4.00
2023-03-01T01:46:51.468Z,-4.00
2023-03-01T01:49:31.222Z,-4.00
2023-03-01T01:52:07.291Z,-4.00
2023-03-01T01:54:42.984Z,-4.00
2023-03-01T01:57:15.889Z,-4.00
2023-03-01T01:59:48.345Z,-4.00
2023-03-01T02:02:17.302Z,-4.00
2023-03-01T02:04:48.084Z,-4.00
2023-03-01T02:07:19.174Z,-4.00
2023-03-01T02:09:50.941Z,-4.10
2023-03-01T02:12:21.743Z,-4.10
2023-03-01T02:14:50.366Z,-4.00
2023-03-01T02:17:20.744Z,-4.10
2023-03-01T02:20:01.723Z,-4.00
2023-03-01T02:22:33.693Z,-4.00
2023-03-01T02:25:15.484Z,-4.10
2023-03-01T02:27:55.708Z,-4.00
2023-03-01T02:30:27.344Z,-4.00
2023-03-01T02:33:04.124Z,-4.00
2023-03-01T02:35:36.002Z,-4.10
2023-03-01T02:38:06.252Z,-4.10
2023-03-01T02:40:37.143Z,-4.10
2023-03-01T02:43:09.336Z,-4.00
2023-03-01T02:45:39.389Z,-4.00
2023-03-01T02:48:08.236Z,-4.00
2023-03-01T02:50:55.591Z,-3.90
2023-03-01T02:53:30.398Z,-3.90
2023-03-01T02:56:00.320Z,-3.90
2023-03-01T02:58:29.012Z,-4.00
2023-03-01T03:01:02.176Z,-4.00
2023-03-01T03:03:30.905Z,-4.00
2023-03-01T03:05:59.868Z,-4.00
2023-03-01T03:08:28.576Z,-4.00
2023-03-01T03:10:57.296Z,-4.00
2023-03-01T03:13:29.582Z,-4.00
2023-03-01T03:15:59.992Z,-3.90
2023-03-01T03:18:28.741Z,-3.90
2023-03-01T03:20:57.435Z,-3.90
2023-03-01T03:23:26.432Z,-3.80
2023-03-01T03:25:55.038Z,-3.80
2023-03-01T03:28:23.651Z,-3.80
2023-03-01T03:30:52.269Z,-3.70
2023-03-01T03:33:22.294Z,-3.70
2023-03-01T03:35:52.677Z,-3.70
2023-03-01T03:38:23.247Z,-3.60
2023-03-01T03:40:53.819Z,-3.60
2023-03-01T03:43:24.056Z,-3.70
2023-03-01T03:45:55.158Z,-3.60
2023-03-01T03:48:26.768Z,-3.60
2023-03-01T03:50:57.383Z,-3.60
2023-03-01T03:53:28.163Z,-3.60
2023-03-01T03:55:57.371Z,-3.60
2023-03-01T03:58:27.098Z,-3.70
2023-03-01T04:00:58.007Z,-3.70
2023-03-01T04:03:29.906Z,-3.60
2023-03-01T04:06:00.482Z,-3.70
2023-03-01T04:08:29.453Z,-3.60
2023-03-01T04:11:22.180Z,-3.60
2023-03-01T04:13:50.856Z,-3.50
2023-03-01T04:16:20.106Z,-3.50
2023-03-01T04:18:50.173Z,-3.50
2023-03-01T04:21:18.739Z,-3.50
2023-03-01T04:23:47.232Z,-3.50
2023-03-01T04:26:15.833Z,-3.50
2023-03-01T04:28:47.286Z,-3.50
2023-03-01T04:31:19.327Z,-3.50
2023-03-01T04:33:52.537Z,-3.50
2023-03-01T04:36:23.892Z,-3.50
2023-03-01T04:38:53.130Z,-3.50
2023-03-01T04:41:23.079Z,-3.50
2023-03-01T04:43:51.905Z,-3.50
2023-03-01T04:46:22.169Z,-3.40
2023-03-01T04:48:52.493Z,-3.40
2023-03-01T04:51:21.120Z,-3.40
2023-03-01T04:53:49.928Z,-3.50
2023-03-01T04:56:19.883Z,-3.50
2023-03-01T04:58:48.927Z,-3.50
2023-03-01T05:01:19.420Z,-3.50
2023-03-01T05:03:49.815Z,-3.40
2023-03-01T05:06:21.245Z,-3.40
2023-03-01T05:08:50.059Z,-3.40
2023-03-01T05:11:18.761Z,-3.50
2023-03-01T05:13:47.525Z,-3.50
2023-03-01T05:16:16.232Z,-3.50
2023-03-01T05:18:45.436Z,-3.50
2023-03-01T05:21:17.380Z,-3.50
2023-03-01T05:23:48.023Z,-3.50
2023-03-01T05:26:33.895Z,-3.50
2023-03-01T05:29:05.366Z,-3.50
2023-03-01T05:31:33.996Z,-3.50
2023-03-01T05:34:03.423Z,-3.50
2023-03-01T05:36:32.383Z,-3.50
2023-03-01T05:39:02.692Z,-3.40
2023-03-01T05:41:31.370Z,-3.40
2023-03-01T05:44:00.126Z,-3.40
2023-03-01T05:46:29.859Z,-3.40
2023-03-01T05:48:58.960Z,-3.30
2023-03-01T05:51:27.600Z,-3.20
2023-03-01T05:53:56.357Z,-3.20
2023-03-01T05:56:26.305Z,-3.10
2023-03-01T05:58:54.832Z,-3.10
2023-03-01T06:01:23.373Z,-3.00
2023-03-01T06:03:52.018Z,-2.80
2023-03-01T06:06:20.671Z,-2.80
2023-03-01T06:08:49.240Z,-2.70
2023-03-01T06:11:18.023Z,-2.60
2023-03-01T06:13:48.725Z,-2.50
2023-03-01T06:16:17.572Z,-2.30
2023-03-01T06:18:46.276Z,-2.30
2023-03-01T06:21:14.943Z,-2.20
2023-03-01T06:23:43.819Z,-2.10
2023-03-01T06:26:12.720Z,-2.00
2023-03-01T06:28:41.520Z,-1.90
2023-03-01T06:31:11.732Z,-1.90
2023-03-01T06:33:40.314Z,-1.80
2023-03-01T06:36:11.167Z,-1.80
2023-03-01T06:38:41.906Z,-1.70
2023-03-01T06:41:10.475Z,-1.60
2023-03-01T06:43:39.078Z,-1.50
2023-03-01T06:46:08.588Z,-1.50
2023-03-01T06:48:38.886Z,-1.50
2023-03-01T06:51:07.660Z,-1.40
2023-03-01T06:53:36.519Z,-1.30
2023-03-01T06:56:05.315Z,-1.30
2023-03-01T06:58:33.837Z,-1.30
2023-03-01T07:01:06.375Z,-1.20
2023-03-01T07:03:35.398Z,-1.10
2023-03-01T07:06:05.697Z,-1.00
2023-03-01T07:08:34.381Z,-0.90
2023-03-01T07:11:03.590Z,-0.90
2023-03-01T07:13:32.244Z,-0.80
2023-03-01T07:16:00.920Z,-0.70
2023-03-01T07:18:29.616Z,-0.60
2023-03-01T07:20:58.200Z,-0.50
2023-03-01T07:23:28.205Z,-0.40
2023-03-01T07:25:57.362Z,-0.30
2023-03-01T07:28:26.666Z,-0.20
2023-03-01T07:30:55.690Z,-0.20
2023-03-01T07:33:24.319Z,-0.10
2023-03-01T07:35:59.238Z,0.00
2023-03-01T07:38:29.934Z,0.10
2023-03-01T07:41:01.531Z,0.20
2023-03-01T07:43:30.453Z,0.30
2023-03-01T07:46:01.640Z,0.40
2023-03-01T07:48:30.935Z,0.50
2023-03-01T07:51:01.042Z,0.60
2023-03-01T07:53:32.113Z,0.80
2023-03-01T07:56:04.561Z,1.20
2023-03-01T07:58:33.222Z,1.50
2023-03-01T08:01:04.096Z,1.60
2023-03-01T08:03:32.789Z,1.90
2023-03-01T08:06:02.990Z,2.00
2023-03-01T08:08:33.635Z,2.20
2023-03-01T08:11:03.139Z,2.30
2023-03-01T08:13:32.478Z,2.40
2023-03-01T08:16:04.486Z,2.50
2023-03-01T08:18:33.304Z,2.50
2023-03-01T08:21:07.892Z,2.50
2023-03-01T08:23:37.975Z,2.60
2023-03-01T08:26:08.799Z,2.60
2023-03-01T08:28:37.362Z,2.70
2023-03-01T08:31:15.272Z,2.80
2023-03-01T08:33:44.157Z,2.90
2023-03-01T08:36:12.853Z,3.00
2023-03-01T08:38:42.837Z,3.10
2023-03-01T08:41:11.402Z,3.20
2023-03-01T08:43:40.012Z,3.30
2023-03-01T08:46:08.758Z,3.40
2023-03-01T08:48:37.327Z,3.50
2023-03-01T08:51:13.903Z,3.60
2023-03-01T08:53:44.239Z,3.60
2023-03-01T08:56:13.095Z,3.60
2023-03-01T08:58:41.849Z,3.60
2023-03-01T09:01:11.598Z,3.70
2023-03-01T09:03:40.345Z,3.70
2023-03-01T09:06:10.311Z,3.80
2023-03-01T09:08:40.172Z,3.90
2023-03-01T09:11:13.309Z,4.00
2023-03-01T09:13:44.248Z,4.10
2023-03-01T09:16:14.646Z,4.00
2023-03-01T09:18:43.346Z,4.00
2023-03-01T09:21:14.356Z,4.00
2023-03-01T09:23:45.180Z,3.90
2023-03-01T09:26:20.371Z,3.80
2023-03-01T09:28:49.602Z,3.80
2023-03-01T09:31:20.413Z,3.80
2023-03-01T09:33:52.019Z,3.70
2023-03-01T09:36:22.722Z,3.80
2023-03-01T09:38:51.458Z,3.80
2023-03-01T09:41:48.426Z,3.80
2023-03-01T09:44:28.486Z,3.80
2023-03-01T09:46:58.364Z,3.80
2023-03-01T09:49:29.803Z,3.90
2023-03-01T09:52:09.043Z,3.90
2023-03-01T09:54:41.501Z,3.70
2023-03-01T09:57:23.454Z,4.10
2023-03-01T10:00:15.516Z,4.10
2023-03-01T10:02:52.199Z,4.10
2023-03-01T10:05:49.592Z,4.20
2023-03-01T10:08:37.499Z,4.20
2023-03-01T10:11:21.674Z,4.20
2023-03-01T10:13:59.572Z,4.20
2023-03-01T10:16:40.372Z,4.20
2023-03-01T10:19:16.574Z,4.50
2023-03-01T10:21:48.148Z,4.20
2023-03-01T10:24:22.855Z,4.30
2023-03-01T10:26:57.524Z,4.40
2023-03-01T10:29:32.236Z,4.40
2023-03-01T10:32:01.053Z,4.40
2023-03-01T10:34:32.226Z,4.50
2023-03-01T10:37:11.005Z,4.40
2023-03-01T10:39:39.675Z,4.60
2023-03-01T10:42:23.480Z,4.60
2023-03-01T10:44:53.968Z,4.70
2023-03-01T10:47:25.882Z,4.80
2023-03-01T10:49:56.926Z,5.00
2023-03-01T10:52:28.503Z,5.10
2023-03-01T10:54:59.487Z,5.20
2023-03-01T10:57:39.997Z,5.20
2023-03-01T11:00:27.362Z,5.30
2023-03-01T11:03:14.542Z,5.30
2023-03-01T11:06:01.747Z,5.30
2023-03-01T11:08:37.112Z,5.40
2023-03-01T11:11:32.682Z,5.50
2023-03-01T11:14:19.373Z,5.60
2023-03-01T11:17:04.304Z,5.60
2023-03-01T11:19:33.371Z,5.70
2023-03-01T11:22:05.940Z,5.80
2023-03-01T11:24:45.618Z,5.80
2023-03-01T11:27:31.884Z,5.70
2023-03-01T11:30:06.286Z,5.70
2023-03-01T11:32:42.709Z,5.70
2023-03-01T11:35:20.114Z,5.80
2023-03-01T11:38:05.802Z,5.90
2023-03-01T11:40:38.138Z,6.00
2023-03-01T11:43:14.244Z,6.00
2023-03-01T11:45:55.113Z,6.00
2023-03-01T11:48:49.451Z,6.00
2023-03-01T11:51:26.246Z,6.00
2023-03-01T11:54:07.507Z,6.10
2023-03-01T11:56:40.833Z,6.20
2023-03-01T11:59:40.197Z,6.30
2023-03-01T12:02:35.035Z,6.50
2023-03-01T12:05:25.367Z,6.50
2023-03-01T12:07:58.789Z,6.70
2023-03-01T12:10:29.930Z,6.70
2023-03-01T12:13:20.527Z,6.60
2023-03-01T12:16:06.638Z,6.60
2023-03-01T12:19:00.265Z,6.70
2023-03-01T12:21:47.067Z,6.70
2023-03-01T12:24:50.681Z,6.60
2023-03-01T12:27:47.780Z,6.50
2023-03-01T12:30:29.468Z,6.60
2023-03-01T12:33:13.519Z,6.50
2023-03-01T12:36:02.218Z,6.50
2023-03-01T12:38:42.860Z,6.50
2023-03-01T12:41:36.754Z,6.70
2023-03-01T12:44:17.168Z,6.80
2023-03-01T12:47:09.477Z,7.00
2023-03-01T12:49:43.689Z,7.10
2023-03-01T12:52:17.440Z,7.10
2023-03-01T12:54:48.622Z,7.10
2023-03-01T12:57:22.731Z,7.00
2023-03-01T13:00:10.862Z,6.90
2023-03-01T13:02:47.400Z,7.00
2023-03-01T13:05:29.469Z,6.90
2023-03-01T13:08:07.354Z,6.80
2023-03-01T13:10:46.749Z,6.90
2023-03-01T13:13:21.829Z,6.90
2023-03-01T13:15:52.489Z,6.90
2023-03-01T13:18:35.401Z,6.90
2023-03-01T13:21:07.254Z,6.90
2023-03-01T13:23:38.636Z,6.90
2023-03-01T13:26:20.255Z,6.90
2023-03-01T13:28:51.731Z,6.90
2023-03-01T13:32:04.967Z,6.90
2023-03-01T13:34:58.577Z,6.80
2023-03-01T13:37:35.957Z,6.80
2023-03-01T13:40:25.300Z,6.80
2023-03-01T13:43:05.427Z,6.90
2023-03-01T13:45:42.485Z,6.90
2023-03-01T13:48:19.723Z,6.90
2023-03-01T13:50:53.312Z,6.80
2023-03-01T13:53:24.913Z,6.90
2023-03-01T13:55:59.604Z,6.90
2023-03-01T13:58:32.227Z,6.90
2023-03-01T14:01:02.546Z,6.90
2023-03-01T14:03:33.105Z,6.90
2023-03-01T14:06:17.719Z,6.90
2023-03-01T14:08:49.827Z,6.80
2023-03-01T14:11:55.237Z,6.70
2023-03-01T14:14:49.116Z,6.60
2023-03-01T14:17:52.047Z,6.60
2023-03-01T14:20:23.562Z,6.60
2023-03-01T14:22:55.022Z,6.60
2023-03-01T14:25:27.002Z,6.60
2023-03-01T14:28:06.244Z,6.70
2023-03-01T14:30:39.904Z,6.70
2023-03-01T14:33:21.005Z,6.60
2023-03-01T14:35:57.793Z,6.50
2023-03-01T14:38:33.082Z,6.50
2023-03-01T14:41:06.601Z,6.40
2023-03-01T14:43:36.174Z,6.30
2023-03-01T14:46:06.466Z,6.30
2023-03-01T14:48:35.468Z,6.20
2023-03-01T14:51:07.056Z,6.40
2023-03-01T14:53:45.835Z,6.40
2023-03-01T14:56:20.688Z,6.30
2023-03-01T14:58:53.221Z,6.20
2023-03-01T15:01:24.444Z,6.20
2023-03-01T15:03:54.028Z,6.10
2023-03-01T15:06:24.693Z,6.00
2023-03-01T15:08:55.741Z,5.90
2023-03-01T15:11:26.346Z,6.10
2023-03-01T15:13:55.598Z,6.10
2023-03-01T15:16:27.412Z,6.10
2023-03-01T15:18:58.476Z,6.10
2023-03-01T15:21:30.202Z,6.00
2023-03-01T15:24:04.854Z,5.90
2023-03-01T15:26:37.692Z,5.80
2023-03-01T15:29:06.675Z,5.80
2023-03-01T15:31:40.099Z,5.70
2023-03-01T15:34:24.590Z,5.70
2023-03-01T15:36:54.320Z,5.80
2023-03-01T15:39:39.546Z,5.80
2023-03-01T15:42:13.080Z,5.80
2023-03-01T15:44:46.270Z,5.80
2023-03-01T15:47:34.307Z,5.80
2023-03-01T15:50:03.611Z,5.90
2023-03-01T15:52:40.661Z,5.90
2023-03-01T15:55:19.218Z,5.80
2023-03-01T15:57:48.053Z,5.70
2023-03-01T16:00:20.200Z,5.50
2023-03-01T16:02:50.345Z,5.40
2023-03-01T16:05:24.398Z,5.30
2023-03-01T16:07:53.667Z,5.10
2023-03-01T16:10:25.638Z,4.90
2023-03-01T16:12:54.706Z,4.80
2023-03-01T16:15:25.671Z,4.60
2023-03-01T16:18:00.499Z,4.40
2023-03-01T16:20:33.508Z,4.30
2023-03-01T16:23:03.363Z,4.20
2023-03-01T16:25:33.453Z,4.00
2023-03-01T16:28:06.122Z,3.90
2023-03-01T16:30:37.069Z,3.70
2023-03-01T16:33:28.803Z,3.60
2023-03-01T16:36:01.652Z,3.40
2023-03-01T16:38:31.103Z,3.30
2023-03-01T16:40:59.907Z,3.10
2023-03-01T16:43:28.970Z,3.00
2023-03-01T16:45:57.880Z,2.90
2023-03-01T16:48:28.055Z,2.80
2023-03-01T16:51:01.515Z,2.80
2023-03-01T16:53:30.791Z,2.70
2023-03-01T16:56:00.640Z,2.60
2023-03-01T16:58:29.416Z,2.50
2023-03-01T17:00:58.870Z,2.50
2023-03-01T17:03:30.023Z,2.40
2023-03-01T17:05:59.013Z,2.30
2023-03-01T17:08:27.661Z,2.30
2023-03-01T17:10:56.362Z,2.20
2023-03-01T17:13:26.590Z,2.20
2023-03-01T17:15:55.182Z,2.10
2023-03-01T17:18:24.302Z,2.10
2023-03-01T17:20:54.513Z,2.10
2023-03-01T17:23:23.492Z,2.10
2023-03-01T17:25:52.497Z,2.00
2023-03-01T17:28:21.282Z,1.90
2023-03-01T17:30:50.601Z,1.90
2023-03-01T17:33:19.575Z,1.90
2023-03-01T17:35:48.427Z,1.80
2023-03-01T17:38:19.463Z,1.60
2023-03-01T17:40:48.246Z,1.50
2023-03-01T17:43:18.679Z,1.50
2023-03-01T17:45:50.976Z,1.50
2023-03-01T17:48:20.234Z,1.40
2023-03-01T17:50:49.429Z,1.40
2023-03-01T17:53:19.505Z,1.40
2023-03-01T17:55:50.347Z,1.40
2023-03-01T17:58:23.061Z,1.40
2023-03-01T18:00:51.959Z,1.40
2023-03-01T18:03:21.832Z,1.40
2023-03-01T18:05:50.888Z,1.30
2023-03-01T18:08:20.860Z,1.40
2023-03-01T18:10:49.502Z,1.40
2023-03-01T18:13:18.300Z,1.40
2023-03-01T18:15:47.004Z,1.40
2023-03-01T18:18:15.607Z,1.40
2023-03-01T18:20:44.205Z,1.30
2023-03-01T18:23:13.018Z,1.20
2023-03-01T18:25:43.128Z,1.20
2023-03-01T18:28:12.258Z,1.20
2023-03-01T18:30:40.936Z,1.20
2023-03-01T18:33:12.034Z,1.20
2023-03-01T18:35:41.116Z,1.20
2023-03-01T18:38:09.762Z,1.20
2023-03-01T18:40:38.443Z,1.10
2023-03-01T18:43:08.582Z,1.10
2023-03-01T18:45:37.382Z,1.10
2023-03-01T18:48:06.232Z,1.00
2023-03-01T18:50:34.815Z,1.00
2023-03-01T18:53:03.406Z,0.90
2023-03-01T18:55:32.297Z,0.90
2023-03-01T18:58:00.940Z,0.80
2023-03-01T19:00:30.998Z,0.80
2023-03-01T19:03:01.415Z,0.70
2023-03-01T19:05:30.398Z,0.60
2023-03-01T19:07:59.177Z,0.50
2023-03-01T19:10:28.416Z,0.50
2023-03-01T19:12:57.338Z,0.40
2023-03-01T19:15:25.985Z,0.40
2023-03-01T19:17:57.531Z,0.30
2023-03-01T19:20:26.420Z,0.40
2023-03-01T19:22:55.046Z,0.30
2023-03-01T19:25:23.719Z,0.30
2023-03-01T19:27:52.350Z,0.30
2023-03-01T19:30:21.098Z,0.20
2023-03-01T19:32:49.736Z,0.20
2023-03-01T19:35:20.001Z,0.20
2023-03-01T19:37:48.705Z,0.30
2023-03-01T19:40:17.431Z,0.30
2023-03-01T19:42:45.968Z,0.30
2023-03-01T19:45:14.736Z,0.30
2023-03-01T19:48:03.201Z,0.30
2023-03-01T19:50:33.323Z,0.20
2023-03-01T19:53:01.945Z,0.10
2023-03-01T19:55:30.646Z,0.10
2023-03-01T19:57:59.296Z,0.00
2023-03-01T20:00:27.998Z,0.00
2023-03-01T20:02:56.789Z,-0.10
2023-03-01T20:05:25.483Z,-0.10
2023-03-01T20:07:59.081Z,-0.10
2023-03-01T20:10:29.832Z,-0.10
2023-03-01T20:12:58.710Z,-0.10
2023-03-01T20:15:27.495Z,-0.10
2023-03-01T20:17:56.352Z,-0.10
2023-03-01T20:20:25.050Z,-0.10
2023-03-01T20:22:53.951Z,-0.10
2023-03-01T20:25:24.122Z,-0.20
2023-03-01T20:27:55.074Z,-0.30
2023-03-01T20:30:23.772Z,-0.30
2023-03-01T20:32:52.368Z,-0.40
2023-03-01T20:35:22.594Z,-0.40
2023-03-01T20:37:53.423Z,-0.40
2023-03-01T20:40:27.556Z,-0.50
2023-03-01T20:42:56.443Z,-0.50
2023-03-01T20:45:27.999Z,-0.60
2023-03-01T20:47:56.842Z,-0.60
2023-03-01T20:50:25.574Z,-0.60
2023-03-01T20:52:54.196Z,-0.70
2023-03-01T20:55:24.243Z,-0.70
2023-03-01T20:57:53.003Z,-0.70
2023-03-01T21:00:22.221Z,-0.70
2023-03-01T21:02:50.922Z,-0.70
2023-03-01T21:05:20.069Z,-0.80
2023-03-01T21:07:48.669Z,-0.70
2023-03-01T21:10:17.779Z,-0.80
2023-03-01T21:12:47.920Z,-0.80
2023-03-01T21:15:28.371Z,-0.80
2023-03-01T21:17:57.732Z,-0.80
2023-03-01T21:20:26.467Z,-0.90
2023-03-01T21:22:55.358Z,-0.90
2023-03-01T21:25:24.079Z,-1.00
2023-03-01T21:27:54.118Z,-1.00
2023-03-01T21:30:22.684Z,-1.00
2023-03-01T21:32:51.519Z,-1.00
2023-03-01T21:35:20.291Z,-1.00
2023-03-01T21:37:48.995Z,-1.00
2023-03-01T21:40:17.857Z,-1.00
2023-03-01T21:42:49.143Z,-1.00
2023-03-01T21:45:19.225Z,-1.10
2023-03-01T21:47:47.918Z,-1.10
2023-03-01T21:50:16.726Z,-1.00
2023-03-01T21:52:45.243Z,-1.10
2023-03-01T21:55:14.144Z,-1.10
2023-03-01T21:57:44.527Z,-1.00
2023-03-01T22:00:17.507Z,-1.10
2023-03-01T22:02:47.825Z,-1.10
2023-03-01T22:05:16.640Z,-1.10
2023-03-01T22:07:45.265Z,-1.10
2023-03-01T22:10:13.840Z,-1.20
2023-03-01T22:12:42.395Z,-1.20
2023-03-01T22:15:14.445Z,-1.20
2023-03-01T22:17:43.120Z,-1.30
2023-03-01T22:20:14.190Z,-1.20
2023-03-01T22:22:43.035Z,-1.20
2023-03-01T22:25:12.668Z,-1.10
2023-03-01T22:27:41.472Z,-1.10
2023-03-01T22:30:12.951Z,-1.00
2023-03-01T22:32:42.921Z,-1.00
2023-03-01T22:35:14.112Z,-1.00
2023-03-01T22:37:42.846Z,-1.00
2023-03-01T22:40:12.625Z,-1.10
2023-03-01T22:42:41.224Z,-1.20
2023-03-01T22:45:10.418Z,-1.20
2023-03-01T22:47:38.989Z,-1.20
2023-03-01T22:50:09.802Z,-1.30
2023-03-01T22:52:40.591Z,-1.30
2023-03-01T22:55:11.118Z,-1.30
2023-03-01T22:57:39.806Z,-1.40
2023-03-01T23:00:13.370Z,-1.40
2023-03-01T23:02:42.236Z,-1.40
2023-03-01T23:05:11.954Z,-1.40
2023-03-01T23:07:41.870Z,-1.40
2023-03-01T23:10:12.428Z,-1.40
2023-03-01T23:12:41.114Z,-1.50
2023-03-01T23:15:11.450Z,-1.50
2023-03-01T23:17:40.280Z,-1.50
2023-03-01T23:20:11.051Z,-1.50
2023-03-01T23:22:39.881Z,-1.60
2023-03-01T23:25:13.349Z,-1.60
2023-03-01T23:27:42.032Z,-1.60
2023-03-01T23:30:11.862Z,-1.60
2023-03-01T23:32:40.840Z,-1.60
2023-03-01T23:35:11.277Z,-1.60
2023-03-01T23:37:40.295Z,-1.60
2023-03-01T23:40:12.294Z,-1.60
2023-03-01T23:42:40.938Z,-1.70
2023-03-01T23:45:10.493Z,-1.60
2023-03-01T23:47:39.830Z,-1.60
2023-03-01T23:50:09.159Z,-1.60
2023-03-01T23:52:41.891Z,-1.60
2023-03-01T23:55:14.665Z,-1.60
2023-03-01T23:57:43.469Z,-1.70
